Time;durP1;ratioP1;P1;durP2;ratioP2;P2;SDS_P1;SDS_P2;PMS_P1;PMS_P2;Temp;Humidity;BMP_temperature;BMP_pressure;BME280_temperature;BME280_humidity;BME280_pressure;Samples;Min_cycle;Max_cycle;Signal;HPM_P1;HPM_P2
2022/11/07 00:02:59;;;;;;;;;;;;;;;;;;;;;
2022/11/07 00:06:31;;;;;;;45.50;34.50;;;;;;;4.35;77.34;100354.73;107515;1291;23058;-81
2022/11/07 00:09:34;;;;;;;43.60;35.70;;;;;;;4.37;77.26;100350.38;106496;1301;23626;-81
2022/11/07 00:12:39;;;;;;;;;;;;;;;;;;;;;
2022/11/07 00:16:29;;;;;;;;;;;;;;;;;;;;;
2022/11/07 00:20:46;;;;;;;43.30;35.70;;;;;;;4.36;77.42;100342.63;107381;1284;23096;-81
2022/11/07 00:23:36;;;;;;;43.20;35.10;;;;;;;4.36;77.48;100338.84;107386;1289;23164;-82
2022/11/07 00:26:43;;;;;;;45.80;35.20;;;;;;;4.36;77.38;100335.92;106982;1298;21987;-81
2022/11/07 00:30:16;;;;;;;41.00;32.90;;;;;;;4.32;77.54;100338.89;106920;1298;22998;-82
2022/11/07 00:33:27;;;;;;;46.00;33.90;;;;;;;4.27;77.62;100339.83;106930;1295;22099;-81
2022/11/07 00:36:50;;;;;;;43.50;32.20;;;;;;;4.25;77.68;100340.38;107237;1295;22042;-80
2022/11/07 00:40:21;;;;;;;;;;;;;;;;;;;;;
2022/11/07 00:44:08;;;;;;;39.50;33.40;;;;;;;4.27;77.69;100345.00;108552;1281;23016;-82
2022/11/07 00:48:07;;;;;;;40.50;33.50;;;;;;;4.20;77.74;100343.70;107911;1289;23464;-83
2022/11/07 00:51:40;;;;;;;42.10;33.60;;;;;;;4.17;77.98;100333.40;106674;1301;22071;-81
2022/11/07 00:55:12;;;;;;;41.00;35.80;;;;;;;4.18;77.94;100323.40;103962;1304;3189587;-82
2022/11/07 00:58:11;;;;;;;;;;;;;;;;;;;;;
2022/11/07 01:01:28;;;;;;;39.60;32.60;;;;;;;4.27;77.85;100324.48;106175;1304;23644;-81
2022/11/07 01:08:01;;;;;;;;;;;;;;;;;;;;;
2022/11/07 01:10:45;;;;;;;41.60;33.40;;;;;;;4.17;77.85;100330.65;106438;1300;23712;-79
2022/11/07 01:13:56;;;;;;;43.50;33.10;;;;;;;4.19;77.90;100326.14;107089;1290;21971;-80
2022/11/07 01:17:40;;;;;;;43.00;34.30;;;;;;;4.16;77.99;100324.80;107638;1292;23160;-81
2022/11/07 01:20:58;;;;;;;;;;;;;;;;;;;;;
2022/11/07 01:24:09;;;;;;;43.00;35.60;;;;;;;4.17;77.95;100326.52;107807;1289;22471;-82
2022/11/07 01:28:09;;;;;;;47.00;39.50;;;;;;;4.17;78.01;100329.77;107594;1289;23703;-81
2022/11/07 01:31:27;;;;;;;49.70;37.70;;;;;;;4.15;78.00;100322.75;107777;1288;22875;-82
2022/11/07 01:34:47;;;;;;;50.00;37.30;;;;;;;4.14;77.98;100321.04;107960;1280;24520;-83
2022/11/07 01:37:47;;;;;;;;;;;;;;;;;;;;;
2022/11/07 01:41:24;;;;;;;51.80;38.60;;;;;;;4.05;78.06;100317.34;108677;1277;23780;-80
2022/11/07 01:44:54;;;;;;;;;;;;;;;;;;;;;
2022/11/07 01:48:31;;;;;;;42.40;36.50;;;;;;;3.95;78.13;100311.79;108373;1283;21945;-80
2022/11/07 01:51:47;;;;;;;47.60;37.60;;;;;;;3.91;78.21;100308.21;108218;1282;22002;-81
2022/11/07 01:55:44;;;;;;;41.70;36.10;;;;;;;3.84;78.34;100302.77;107970;1289;22023;-81
2022/11/07 01:59:19;;;;;;;45.40;36.50;;;;;;;3.74;78.49;100290.31;107285;1294;24410;-83
2022/11/07 02:02:56;;;;;;;39.50;32.60;;;;;;;3.67;78.56;100278.52;106527;1300;22009;-80
2022/11/07 02:06:01;;;;;;;38.80;32.30;;;;;;;3.61;78.78;100268.08;106733;1297;24312;-82
2022/11/07 02:10:17;;;;;;;;;;;;;;;;;;;;;
2022/11/07 02:13:01;;;;;;;;;;;;;;;;;;;;;
2022/11/07 02:16:32;;;;;;;;;;;;;;;;;;;;;
2022/11/07 02:19:55;;;;;;;41.50;37.00;;;;;;;3.57;78.90;100264.00;106609;1301;22539;-81
2022/11/07 02:23:26;;;;;;;;;;;;;;;;;;;;;
2022/11/07 02:26:36;;;;;;;43.40;34.90;;;;;;;3.49;79.16;100256.16;106990;1298;22110;-82
2022/11/07 02:29:42;;;;;;;;;;;;;;;;;;;;;
2022/11/07 02:32:33;;;;;;;43.80;37.40;;;;;;;3.46;79.23;100240.20;107641;1289;21963;-81
2022/11/07 02:35:46;;;;;;;42.60;37.20;;;;;;;3.44;79.20;100240.56;107926;1284;22027;-81
2022/11/07 02:39:07;;;;;;;;;;;;;;;;;;;;;
2022/11/07 02:42:55;;;;;;;;;;;;;;;;;;;;;
2022/11/07 02:46:22;;;;;;;;;;;;;;;;;;;;;
2022/11/07 02:49:39;;;;;;;51.80;41.70;;;;;;;3.45;79.33;100226.26;107844;1285;23200;-81
2022/11/07 02:56:29;;;;;;;48.60;40.20;;;;;;;3.45;79.44;100222.83;107454;1292;22101;-81
2022/11/07 02:59:37;;;;;;;43.40;38.50;;;;;;;3.46;79.46;100217.14;107411;1286;24291;-82
2022/11/07 03:02:35;;;;;;;;;;;;;;;;;;;;;
2022/11/07 03:05:44;;;;;;;46.90;41.90;;;;;;;3.44;79.44;100214.41;108080;1286;24044;-81
2022/11/07 03:09:09;;;;;;;;;;;;;;;;;;;;;
2022/11/07 03:12:22;;;;;;;49.90;41.60;;;;;;;3.42;79.55;100211.49;107818;1288;23677;-80
2022/11/07 03:15:46;;;;;;;48.40;37.90;;;;;;;3.41;79.74;100205.84;107366;1280;23139;-81
2022/11/07 03:18:50;;;;;;;;;;;;;;;;;;;;;
2022/11/07 03:21:34;;;;;;;48.00;38.80;;;;;;;3.39;79.67;100197.25;107559;1289;21965;-80
2022/11/07 03:24:31;;;;;;;51.00;39.70;;;;;;;3.37;79.74;100195.73;107781;1289;22116;-79
2022/11/07 03:27:28;;;;;;;45.70;40.80;;;;;;;3.35;79.80;100189.39;108239;1270;21963;-80
2022/11/07 03:31:08;;;;;;;47.40;39.00;;;;;;;3.35;79.88;100189.73;108510;1278;23051;-80
2022/11/07 03:33:59;;;;;;;50.80;39.10;;;;;;;3.34;79.95;100193.36;108881;1271;21919;-80
2022/11/07 03:37:50;;;;;;;47.10;40.20;;;;;;;3.35;80.01;100202.29;108705;1276;22109;-80
2022/11/07 03:45:19;;;;;;;52.20;38.70;;;;;;;3.49;80.13;100214.54;107752;1289;21971;-79
2022/11/07 03:48:39;;;;;;;46.20;40.20;;;;;;;3.58;80.10;100224.25;107378;1295;22032;-80
2022/11/07 03:52:20;;;;;;;;;;;;;;;;;;;;;
2022/11/07 03:55:03;;;;;;;47.70;41.10;;;;;;;3.67;79.92;100232.04;106957;1299;21987;-80
2022/11/07 03:58:35;;;;;;;51.10;41.30;;;;;;;3.70;79.83;100234.92;107004;1295;23096;-81
2022/11/07 04:01:20;;;;;;;49.10;40.80;;;;;;;3.72;79.66;100236.98;106233;1301;23088;-80
2022/11/07 04:04:36;;;;;;;;;;;;;;;;;;;;;
2022/11/07 04:17:17;;;;;;;45.80;39.20;;;;;;;3.73;79.73;100245.75;106697;1295;24251;-80
2022/11/07 04:19:01;;;;;;;44.60;39.20;;;;;;;3.79;79.85;100240.17;107334;1295;21975;-81
2022/11/07 04:22:32;;;;;;;46.20;39.70;;;;;;;3.80;79.81;100234.14;107730;1289;23079;-81
2022/11/07 04:28:55;;;;;;;45.70;39.80;;;;;;;3.92;79.75;100231.77;107533;1289;22246;-81
2022/11/07 04:36:08;;;;;;;48.20;38.90;;;;;;;3.96;79.57;100227.05;108038;1277;23616;-82
2022/11/07 04:39:16;;;;;;;;;;;;;;;;;;;;;
2022/11/07 04:42:36;;;;;;;;;;;;;;;;;;;;;
2022/11/07 04:45:30;;;;;;;;;;;;;;;;;;;;;
2022/11/07 04:49:01;;;;;;;49.90;40.80;;;;;;;3.96;79.46;100233.42;108705;1275;23007;-80
2022/11/07 04:52:10;;;;;;;47.30;41.50;;;;;;;4.00;79.54;100227.02;108659;1276;21930;-81
2022/11/07 04:55:20;;;;;;;46.80;41.00;;;;;;;4.04;79.44;100226.27;108656;1276;22377;-82
2022/11/07 04:58:41;;;;;;;52.50;40.70;;;;;;;4.01;79.28;100224.41;108359;1280;23018;-81
2022/11/07 05:02:40;;;;;;;51.90;43.00;;;;;;;3.92;79.28;100221.08;108480;1280;21931;-81
2022/11/07 05:06:22;;;;;;;48.70;41.20;;;;;;;3.92;79.21;100224.34;108441;1278;22237;-82
2022/11/07 05:09:36;;;;;;;;;;;;;;;;;;;;;
2022/11/07 05:12:27;;;;;;;51.50;42.20;;;;;;;3.90;79.18;100221.79;108655;1276;21956;-81
2022/11/07 05:16:16;;;;;;;72.60;53.10;;;;;;;3.86;79.20;100224.42;108483;1272;23755;-82
2022/11/07 05:19:48;;;;;;;;;;;;;;;;;;;;;
2022/11/07 05:26:44;;;;;;;;;;;;;;;;;;;;;
2022/11/07 05:30:15;;;;;;;71.20;53.10;;;;;;;3.93;79.49;100210.57;107688;1285;24290;-79
2022/11/07 05:33:34;;;;;;;;;;;;;;;;;;;;;
2022/11/07 05:36:49;;;;;;;;;;;;;;;;;;;;;
2022/11/07 05:40:28;;;;;;;66.60;50.40;;;;;;;3.91;79.35;100219.55;107576;1289;23823;-79
2022/11/07 05:43:52;;;;;;;;;;;;;;;;;;;;;
2022/11/07 05:46:58;;;;;;;72.80;52.70;;;;;;;3.92;79.35;100221.26;106246;1300;22429;-79
2022/11/07 05:50:17;;;;;;;;;;;;;;;;;;;;;
2022/11/07 05:53:22;;;;;;;63.70;48.70;;;;;;;3.91;79.47;100230.73;106122;1300;22018;-78
2022/11/07 05:56:23;;;;;;;66.80;52.20;;;;;;;3.95;79.62;100235.16;106124;1300;21965;-78
2022/11/07 05:59:18;;;;;;;85.00;60.40;;;;;;;4.01;79.62;100234.74;106134;1301;22015;-78
2022/11/07 06:01:57;;;;;;;88.50;63.10;;;;;;;4.07;79.65;100232.61;106531;1292;21955;-82
2022/11/07 06:04:55;;;;;;;81.10;61.90;;;;;;;4.11;79.56;100232.03;107889;1266;23064;-78
2022/11/07 06:08:10;;;;;;;82.40;60.20;;;;;;;4.16;79.62;100237.48;107676;1286;22071;-78
2022/11/07 06:11:15;;;;;;;79.80;62.50;;;;;;;4.21;79.62;100241.20;107772;1286;21945;-78
2022/11/07 06:14:14;;;;;;;;;;;;;;;;;;;;;
2022/11/07 06:17:02;;;;;;;83.30;64.60;;;;;;;4.31;79.51;100244.52;108034;1285;21960;-79
2022/11/07 06:20:17;;;;;;;93.80;69.20;;;;;;;4.36;79.59;100244.45;108478;1275;23066;-78
2022/11/07 06:23:42;;;;;;;82.00;65.10;;;;;;;4.41;79.57;100245.74;108757;1277;21949;-79
2022/11/07 06:27:51;;;;;;;83.30;66.70;;;;;;;4.46;79.54;100248.61;108741;1272;21930;-78
2022/11/07 06:31:00;;;;;;;;;;;;;;;;;;;;;
2022/11/07 06:34:20;;;;;;;77.00;63.10;;;;;;;4.52;79.58;100242.83;108266;1280;21980;-78
2022/11/07 06:37:28;;;;;;;94.00;75.40;;;;;;;4.57;79.62;100248.10;108203;1280;21935;-79
2022/11/07 06:41:23;;;;;;;69.60;59.00;;;;;;;4.64;79.65;100255.59;107731;1289;21983;-79
2022/11/07 06:45:22;;;;;;;;;;;;;;;;;;;;;
2022/11/07 06:48:36;;;;;;;68.60;57.40;;;;;;;4.80;79.56;100278.10;106104;1302;21998;-79
2022/11/07 06:51:27;;;;;;;76.60;64.70;;;;;;;4.89;79.53;100281.76;106066;1300;22774;-78
2022/11/07 06:54:04;;;;;;;72.30;60.20;;;;;;;4.96;79.65;100289.23;106120;1301;22498;-78
2022/11/07 06:57:30;;;;;;;;;;;;;;;;;;;;;
2022/11/07 07:00:47;;;;;;;72.70;60.80;;;;;;;5.13;79.61;100301.55;107294;1294;23525;-80
2022/11/07 07:03:34;;;;;;;72.60;56.80;;;;;;;5.22;79.58;100301.91;107916;1286;22379;-80
2022/11/07 07:06:47;;;;;;;64.50;54.80;;;;;;;5.29;79.50;100307.66;108033;1283;23057;-80
2022/11/07 07:10:17;;;;;;;70.80;55.80;;;;;;;5.33;79.43;100308.46;108214;1282;21951;-83
2022/11/07 07:13:02;;;;;;;;;;;;;;;;;;;;;
2022/11/07 07:16:37;;;;;;;65.70;52.40;;;;;;;5.45;79.30;100319.48;108503;1280;23682;-79
2022/11/07 07:19:56;;;;;;;57.10;47.10;;;;;;;5.50;79.20;100315.94;108257;1283;21943;-80
2022/11/07 07:23:24;;;;;;;56.70;48.80;;;;;;;5.55;79.11;100316.21;107982;1287;22940;-80
2022/11/07 07:26:46;;;;;;;;;;;;;;;;;;;;;
2022/11/07 07:33:41;;;;;;;64.50;50.80;;;;;;;5.59;78.95;100319.23;107531;1291;23094;-81
2022/11/07 07:37:29;;;;;;;;;;;;;;;;;;;;;
2022/11/07 07:40:44;;;;;;;83.30;60.50;;;;;;;5.67;79.06;100324.61;108156;1280;23466;-81
2022/11/07 07:44:43;;;;;;;;;;;;;;;;;;;;;
2022/11/07 07:48:43;;;;;;;;;;;;;;;;;;;;;
2022/11/07 07:52:27;;;;;;;65.60;51.90;;;;;;;6.13;79.46;100333.11;108596;1282;21954;-82
2022/11/07 07:57:00;;;;;;;57.00;50.30;;;;;;;6.30;79.51;100333.80;107535;1295;22572;-83
2022/11/07 08:00:12;;;;;;;53.50;46.50;;;;;;;6.46;79.38;100342.29;106917;1298;21964;-84
2022/11/07 08:03:39;;;;;;;47.40;41.80;;;;;;;6.60;79.20;100338.88;106837;1298;22027;-83
2022/11/07 08:06:29;;;;;;;;;;;;;;;;;;;;;
2022/11/07 08:09:35;;;;;;;54.80;42.20;;;;;;;6.80;78.71;100344.69;106647;1295;23806;-83
2022/11/07 08:12:17;;;;;;;46.20;37.90;;;;;;;6.92;78.79;100345.45;107411;1289;21991;-83
2022/11/07 08:15:18;;;;;;;51.30;40.20;;;;;;;7.04;78.63;100342.91;108312;1283;21959;-83
2022/11/07 08:19:40;;;;;;;49.60;41.50;;;;;;;7.11;78.23;100347.08;107920;1290;21921;-83
2022/11/07 08:23:33;;;;;;;48.50;40.10;;;;;;;7.17;78.17;100343.48;107585;1295;21913;-83
2022/11/07 08:26:44;;;;;;;46.80;40.20;;;;;;;7.25;77.89;100343.48;106782;1303;21973;-79
2022/11/07 08:29:40;;;;;;;50.80;41.80;;;;;;;7.32;77.73;100341.74;107120;1300;21999;-81
2022/11/07 08:32:47;;;;;;;56.40;42.10;;;;;;;7.40;77.72;100339.45;106718;1306;22048;-83
2022/11/07 08:35:22;;;;;;;39.70;36.80;;;;;;;7.51;77.44;100342.48;106096;1301;21958;-83
2022/11/07 08:38:23;;;;;;;49.80;43.90;;;;;;;7.62;77.38;100337.53;107578;1289;21968;-82
2022/11/07 08:41:13;;;;;;;48.40;43.10;;;;;;;7.74;77.57;100338.08;108363;1283;23690;-82
2022/11/07 08:44:21;;;;;;;;;;;;;;;;;;;;;
2022/11/07 08:47:29;;;;;;;54.70;42.60;;;;;;;8.05;77.29;100337.93;108245;1283;22130;-83
2022/11/07 08:50:23;;;;;;;44.20;35.60;;;;;;;8.13;76.98;100346.04;108303;1283;24514;-83
2022/11/07 08:53:40;;;;;;;57.00;41.70;;;;;;;8.23;76.77;100349.23;108454;1282;22108;-84
2022/11/07 08:57:12;;;;;;;;;;;;;;;;;;;;;
2022/11/07 09:01:04;;;;;;;40.00;33.30;;;;;;;8.51;76.89;100352.61;108958;1277;23095;-83
2022/11/07 09:04:25;;;;;;;41.60;34.40;;;;;;;8.72;76.78;100353.56;108294;1289;22047;-83
2022/11/07 09:07:41;;;;;;;47.50;36.90;;;;;;;8.91;76.36;100356.27;108272;1289;21990;-83
2022/11/07 09:11:46;;;;;;;;;;;;;;;;;;;;;
2022/11/07 09:15:10;;;;;;;;;;;;;;;;;;;;;
2022/11/07 09:19:04;;;;;;;;;;;;;;;;;;;;;
2022/11/07 09:22:36;;;;;;;;;;;;;;;;;;;;;
2022/11/07 09:25:59;;;;;;;;;;;;;;;;;;;;;
2022/11/07 09:29:38;;;;;;;24.30;18.30;;;;;;;10.35;72.66;100366.61;106142;1310;548306;-86
2022/11/07 09:33:24;;;;;;;;;;;;;;;;;;;;;
2022/11/07 09:37:00;;;;;;;;;;;;;;;;;;;;;
2022/11/07 09:45:28;;;;;;;;;;;;;;;;;;;;;
2022/11/07 09:48:55;;;;;;;;;;;;;;;;;;;;;
2022/11/07 09:52:30;;;;;;;21.80;14.90;;;;;;;10.72;69.33;100364.36;108186;1289;21992;-85
2022/11/07 09:56:09;;;;;;;16.50;14.40;;;;;;;10.76;69.10;100371.85;108397;1286;22761;-84
2022/11/07 10:00:14;;;;;;;;;;;;;;;;;;;;;
2022/11/07 10:04:13;;;;;;;19.30;13.70;;;;;;;10.77;68.10;100382.10;107884;1292;22234;-85
2022/11/07 10:11:02;;;;;;;15.30;12.50;;;;;;;10.75;67.72;100385.79;106140;1308;21998;-87
2022/11/07 10:14:17;;;;;;;;;;;;;;;;;;;;;
2022/11/07 10:17:57;;;;;;;14.60;11.60;;;;;;;10.78;67.24;100391.10;106141;1309;21820;-85
2022/11/07 10:20:40;;;;;;;15.10;11.10;;;;;;;10.78;67.18;100387.98;106320;1297;23080;-78
2022/11/07 10:23:26;;;;;;;15.00;11.80;;;;;;;10.82;67.23;100389.55;107180;1297;21958;-85
2022/11/07 10:27:40;;;;;;;11.00;8.20;;;;;;;10.84;67.19;100385.80;106971;1300;21991;-85
2022/11/07 10:31:33;;;;;;;13.60;9.20;;;;;;;10.79;66.76;100387.23;106513;1306;22522;-85
2022/11/07 10:34:58;;;;;;;12.50;9.30;;;;;;;10.80;66.49;100384.59;106282;1306;22174;-85
2022/11/07 10:38:05;;;;;;;14.00;10.30;;;;;;;10.85;66.87;100387.86;106491;1306;22755;-85
2022/11/07 10:41:50;;;;;;;10.90;9.60;;;;;;;10.95;66.71;100393.58;106340;1303;21999;-85
2022/11/07 10:44:34;;;;;;;10.40;9.30;;;;;;;11.01;66.38;100390.39;107191;1286;22440;-84
2022/11/07 10:47:45;;;;;;;;;;;;;;;;;;;;;
2022/11/07 10:52:06;;;;;;;;;;;;;;;;;;;;;
2022/11/07 10:54:39;;;;;;;9.50;8.60;;;;;;;11.73;67.22;100383.86;108581;1280;21963;-84
2022/11/07 10:58:17;;;;;;;;;;;;;;;;;;;;;
2022/11/07 11:01:43;;;;;;;15.70;12.10;;;;;;;12.05;64.66;100381.30;108922;1277;21938;-84
2022/11/07 11:05:09;;;;;;;;;;;;;;;;;;;;;
2022/11/07 11:08:40;;;;;;;14.10;10.10;;;;;;;11.91;63.54;100383.64;108744;1278;23703;-84
2022/11/07 11:12:15;;;;;;;;;;;;;;;;;;;;;
2022/11/07 11:15:47;;;;;;;13.20;11.80;;;;;;;11.62;63.36;100386.02;108383;1283;21940;-85
2022/11/07 11:19:58;;;;;;;;;;;;;;;;;;;;;
2022/11/07 11:23:25;;;;;;;13.20;9.40;;;;;;;11.50;63.96;100382.52;107388;1296;22045;-85
2022/11/07 11:26:22;;;;;;;10.60;9.00;;;;;;;11.50;63.95;100382.87;107410;1295;23864;-87
2022/11/07 11:29:38;;;;;;;10.50;9.40;;;;;;;11.50;63.86;100386.87;107290;1298;22600;-86
2022/11/07 11:33:22;;;;;;;17.30;10.40;;;;;;;11.57;64.00;100385.71;106492;1303;544703;-85
2022/11/07 12:08:40;;;;;;;16.10;13.60;;;;;;;10.84;65.23;100392.10;108949;1282;22256;-84
2022/11/07 12:11:26;;;;;;;20.70;16.20;;;;;;;10.83;65.21;100397.02;108865;1283;21937;-84
2022/11/07 12:14:28;;;;;;;26.00;18.50;;;;;;;10.86;65.33;100391.13;109151;1277;21840;-84
2022/11/07 12:17:05;;;;;;;26.40;23.40;;;;;;;10.89;65.34;100390.67;109230;1277;22157;-87
2022/11/07 12:20:01;;;;;;;22.10;18.00;;;;;;;10.98;65.50;100396.96;109125;1278;21905;-86
2022/11/07 12:22:55;;;;;;;13.40;10.30;;;;;;;11.04;65.29;100398.98;108687;1274;21929;-81
2022/11/07 12:25:57;;;;;;;13.70;11.80;;;;;;;11.06;65.23;100396.27;108925;1277;22396;-84
2022/11/07 12:28:44;;;;;;;16.10;13.00;;;;;;;11.08;65.26;100390.30;109046;1275;21945;-85
2022/11/07 12:32:00;;;;;;;14.20;12.00;;;;;;;11.11;65.16;100389.13;108889;1277;21976;-82
2022/11/07 12:35:12;;;;;;;16.30;14.00;;;;;;;11.13;65.19;100388.38;108859;1277;21949;-84
2022/11/07 12:38:15;;;;;;;14.50;12.20;;;;;;;11.12;65.03;100389.98;109026;1274;23791;-85
2022/11/07 12:41:23;;;;;;;12.30;11.10;;;;;;;11.09;65.07;100392.85;108834;1278;22996;-86
2022/11/07 12:43:59;;;;;;;13.10;11.70;;;;;;;11.09;65.14;100394.27;108995;1275;23676;-84
2022/11/07 12:46:57;;;;;;;14.50;11.40;;;;;;;11.14;65.09;100396.00;108839;1275;21977;-82
2022/11/07 12:49:56;;;;;;;18.20;13.60;;;;;;;11.14;65.02;100398.92;108564;1280;21960;-83
2022/11/07 12:52:46;;;;;;;17.20;14.90;;;;;;;11.18;65.14;100391.64;108507;1284;23857;-87
2022/11/07 12:55:40;;;;;;;15.20;12.40;;;;;;;11.20;64.92;100390.69;108406;1284;21959;-83
2022/11/07 12:58:26;;;;;;;14.70;12.40;;;;;;;11.18;64.79;100388.16;108269;1283;21955;-84
2022/11/07 13:00:57;;;;;;;22.80;18.00;;;;;;;11.18;64.95;100389.38;108369;1280;21974;-81
2022/11/07 13:03:52;;;;;;;20.20;17.00;;;;;;;11.21;65.00;100386.48;108242;1282;23103;-81
2022/11/07 13:06:38;;;;;;;15.80;14.20;;;;;;;11.24;64.94;100382.50;108335;1281;21944;-79
2022/11/07 13:09:36;;;;;;;20.20;17.00;;;;;;;11.25;64.74;100385.08;108348;1281;22134;-81
2022/11/07 13:12:25;;;;;;;19.90;13.40;;;;;;;11.25;64.78;100385.43;108242;1282;21959;-79
2022/11/07 13:14:55;;;;;;;23.00;17.80;;;;;;;11.25;64.68;100385.77;108181;1283;23586;-80
2022/11/07 13:17:36;;;;;;;29.40;23.60;;;;;;;11.27;64.55;100384.30;108249;1283;21935;-80
2022/11/07 13:20:28;;;;;;;18.90;16.30;;;;;;;11.29;64.53;100384.24;108042;1283;21943;-80
2022/11/07 13:23:00;;;;;;;;;;;;;;;11.28;64.46;100390.38;108392;1280;21972;-79
2022/11/07 13:25:31;;;;;;;13.60;11.40;;;;;;;11.18;64.63;100389.73;108410;1282;23094;-82
2022/11/07 13:28:24;;;;;;;18.40;16.40;;;;;;;11.16;64.53;100391.73;108426;1279;23077;-81
2022/11/07 13:30:57;;;;;;;15.80;13.60;;;;;;;11.20;64.70;100400.45;109290;1271;21974;-80
2022/11/07 13:33:36;;;;;;;16.60;14.50;;;;;;;11.22;64.73;100403.34;109016;1271;21972;-82
2022/11/07 13:36:26;;;;;;;20.00;15.00;;;;;;;11.23;64.74;100404.15;108919;1272;23088;-80
2022/11/07 13:38:59;;;;;;;17.20;14.10;;;;;;;11.21;64.69;100404.41;108976;1271;23107;-82
2022/11/07 13:41:28;;;;;;;17.80;12.80;;;;;;;11.22;64.68;100407.36;108908;1275;21949;-81
2022/11/07 13:44:02;;;;;;;16.90;12.90;;;;;;;11.23;64.66;100408.86;108602;1269;22050;-81
2022/11/07 13:46:46;;;;;;;14.30;10.20;;;;;;;11.23;64.60;100408.52;108774;1269;23609;-83
2022/11/07 13:49:42;;;;;;;26.80;22.70;;;;;;;11.22;64.64;100411.17;108838;1275;21937;-79
2022/11/07 13:52:36;;;;;;;16.70;11.80;;;;;;;11.19;64.65;100408.70;108936;1275;23757;-78
2022/11/07 13:55:19;;;;;;;13.00;10.60;;;;;;;11.16;64.66;100406.53;108780;1275;21962;-77
2022/11/07 13:58:02;;;;;;;12.40;11.10;;;;;;;11.12;64.65;100406.84;108834;1275;24371;-79
2022/11/07 14:00:33;;;;;;;14.80;10.40;;;;;;;11.09;64.71;100409.21;109145;1271;22007;-81
2022/11/07 14:03:02;;;;;;;14.60;10.10;;;;;;;11.07;64.75;100407.59;109105;1271;24359;-81
2022/11/07 14:05:35;;;;;;;12.60;9.80;;;;;;;11.05;64.78;100408.18;108892;1271;21937;-78
2022/11/07 14:08:26;;;;;;;10.20;8.90;;;;;;;11.04;64.80;100409.27;108943;1271;21949;-81
2022/11/07 14:10:56;;;;;;;11.10;9.20;;;;;;;11.03;64.95;100408.09;108987;1271;22339;-81
2022/11/07 14:13:36;;;;;;;11.50;10.10;;;;;;;11.04;64.98;100409.46;109006;1271;22708;-82
2022/11/07 14:16:25;;;;;;;9.50;8.50;;;;;;;11.03;64.95;100410.52;109255;1268;21966;-81
2022/11/07 14:19:02;;;;;;;14.50;9.40;;;;;;;11.02;65.09;100410.54;109147;1271;21948;-81
2022/11/07 14:21:35;;;;;;;11.90;10.50;;;;;;;11.03;65.15;100409.48;109031;1271;21644;-77
2022/11/07 14:24:25;;;;;;;20.70;14.20;;;;;;;11.03;65.03;100414.51;109211;1271;21929;-80
2022/11/07 14:26:59;;;;;;;19.40;14.70;;;;;;;11.02;65.08;100415.61;109070;1271;21927;-82
2022/11/07 14:29:28;;;;;;;18.30;15.00;;;;;;;11.02;65.12;100416.83;109151;1271;23045;-83
2022/11/07 14:32:04;;;;;;;18.80;16.40;;;;;;;11.01;65.13;100418.26;109185;1271;23638;-85
2022/11/07 14:34:35;;;;;;;24.40;18.50;;;;;;;10.99;65.23;100419.02;108896;1271;22854;-84
2022/11/07 14:37:05;;;;;;;29.20;24.70;;;;;;;10.98;65.21;100418.74;108883;1271;22997;-81
2022/11/07 14:39:35;;;;;;;26.70;20.80;;;;;;;10.94;65.08;100417.48;108948;1271;21925;-82
2022/11/07 14:42:04;;;;;;;21.30;17.60;;;;;;;10.89;65.17;100417.13;108994;1271;21901;-80
2022/11/07 14:44:38;;;;;;;22.70;18.20;;;;;;;10.84;65.26;100419.07;108801;1275;21934;-81
2022/11/07 14:47:31;;;;;;;21.80;18.60;;;;;;;10.80;65.36;100423.40;108860;1275;21989;-79
2022/11/07 14:50:01;;;;;;;30.00;22.50;;;;;;;10.77;65.58;100428.55;108946;1275;22161;-80
2022/11/07 14:52:41;;;;;;;31.30;23.10;;;;;;;10.77;65.70;100429.08;108866;1274;21957;-81
2022/11/07 14:55:27;;;;;;;24.50;20.50;;;;;;;10.76;65.66;100428.59;108824;1268;23051;-80
2022/11/07 14:58:04;;;;;;;28.60;21.10;;;;;;;10.75;65.72;100429.18;108546;1279;21959;-81
2022/11/07 15:00:33;;;;;;;36.60;30.60;;;;;;;10.73;65.84;100429.73;108564;1281;21996;-83
2022/11/07 15:03:03;;;;;;;33.20;29.70;;;;;;;10.73;65.96;100430.09;108616;1277;22152;-83
2022/11/07 15:05:38;;;;;;;28.70;25.20;;;;;;;10.71;65.96;100431.37;108636;1273;21961;-82
2022/11/07 15:08:29;;;;;;;29.90;25.20;;;;;;;10.68;65.93;100434.27;108845;1276;22366;-80
2022/11/07 15:11:13;;;;;;;32.10;28.60;;;;;;;10.64;66.09;100430.10;109013;1275;22337;-80
2022/11/07 15:13:46;;;;;;;35.00;29.70;;;;;;;10.60;66.15;100429.02;109113;1271;22051;-81
2022/11/07 15:16:21;;;;;;;35.50;30.10;;;;;;;10.57;66.29;100428.59;108910;1271;22493;-83
2022/11/07 15:19:00;;;;;;;37.80;30.00;;;;;;;10.52;66.21;100426.87;109168;1271;22227;-82
2022/11/07 15:21:37;;;;;;;36.70;28.90;;;;;;;10.45;66.24;100426.42;109254;1271;22793;-80
2022/11/07 15:24:34;;;;;;;34.00;28.30;;;;;;;10.37;66.31;100422.34;108991;1273;21954;-80
2022/11/07 15:27:20;;;;;;;33.10;27.40;;;;;;;10.29;66.49;100421.75;108707;1279;22298;-80
2022/11/07 15:29:59;;;;;;;35.10;27.40;;;;;;;10.23;66.58;100421.59;108484;1283;21979;-80
2022/11/07 15:32:36;;;;;;;39.40;33.10;;;;;;;10.19;66.74;100423.30;108188;1282;22033;-78
2022/11/07 15:35:18;;;;;;;46.00;35.80;;;;;;;10.16;66.87;100423.41;108249;1282;21974;-78
2022/11/07 15:38:26;;;;;;;32.40;27.10;;;;;;;10.09;67.07;100413.40;108246;1282;21938;-78
2022/11/07 15:40:55;;;;;;;36.00;30.10;;;;;;;10.03;67.16;100415.34;108248;1282;21953;-78
2022/11/07 15:43:24;;;;;;;35.60;30.10;;;;;;;9.99;67.25;100418.95;108183;1282;21944;-78
2022/11/07 15:45:55;;;;;;;47.00;42.00;;;;;;;9.95;67.32;100420.31;108245;1282;21941;-78
2022/11/07 15:48:31;;;;;;;71.70;52.90;;;;;;;9.91;67.49;100422.02;108228;1279;22018;-78
2022/11/07 15:51:08;;;;;;;58.50;50.40;;;;;;;9.85;67.52;100419.61;108579;1278;21939;-79
2022/11/07 15:53:37;;;;;;;65.60;56.50;;;;;;;9.77;67.61;100423.36;108319;1280;21941;-79
2022/11/07 15:56:09;;;;;;;70.40;59.30;;;;;;;9.70;67.74;100424.81;108465;1277;23044;-79
2022/11/07 15:58:38;;;;;;;;;;;;;;;9.63;67.99;100424.17;108573;1280;23725;-79
2022/11/07 16:01:07;;;;;;;79.00;69.90;;;;;;;9.49;68.30;100424.94;108592;1279;21996;-78
2022/11/07 16:03:36;;;;;;;59.40;51.20;;;;;;;9.49;68.57;100426.89;108486;1275;21935;-78
2022/11/07 16:06:25;;;;;;;62.50;55.90;;;;;;;9.49;68.63;100429.33;109103;1271;22426;-78
2022/11/07 16:08:55;;;;;;;56.60;50.40;;;;;;;9.46;68.70;100432.53;109085;1269;21928;-78
2022/11/07 16:11:24;;;;;;;57.00;50.70;;;;;;;9.43;68.80;100434.88;108748;1274;23052;-83
2022/11/07 16:13:53;;;;;;;56.30;47.10;;;;;;;9.42;69.01;100437.34;108917;1263;23799;-79
2022/11/07 16:16:46;;;;;;;49.70;44.00;;;;;;;9.42;69.17;100435.25;109027;1272;23017;-81
2022/11/07 16:19:23;;;;;;;50.30;43.90;;;;;;;9.44;69.33;100432.59;108836;1273;23090;-84
2022/11/07 16:21:52;;;;;;;55.30;48.20;;;;;;;9.43;69.33;100432.98;109504;1274;21960;-86
2022/11/07 16:24:21;;;;;;;62.40;55.60;;;;;;;9.44;69.42;100430.69;109206;1278;22409;-88
2022/11/07 16:26:51;;;;;;;61.70;51.80;;;;;;;9.43;69.34;100422.89;109542;1275;21923;-88
2022/11/07 16:29:25;;;;;;;132.80;92.20;;;;;;;9.38;69.24;100417.85;109580;1275;21933;-88
2022/11/07 16:31:55;;;;;;;146.00;114.30;;;;;;;9.32;69.33;100414.90;109499;1275;21931;-86
2022/11/07 16:34:24;;;;;;;176.80;144.10;;;;;;;9.30;69.49;100418.09;109213;1275;23070;-85
2022/11/07 16:36:53;;;;;;;107.60;84.40;;;;;;;9.30;69.52;100424.01;109367;1275;21937;-88
2022/11/07 16:39:22;;;;;;;88.00;76.60;;;;;;;9.28;69.53;100424.58;108841;1275;21949;-81
2022/11/07 16:41:51;;;;;;;109.80;98.50;;;;;;;9.27;69.52;100419.76;108931;1271;24197;-79
2022/11/07 16:44:22;;;;;;;153.10;137.90;;;;;;;9.22;69.62;100420.77;108972;1271;21932;-81
2022/11/07 16:46:55;;;;;;;88.00;74.20;;;;;;;9.22;69.93;100421.30;108976;1271;21959;-80
2022/11/07 16:49:32;;;;;;;83.10;66.70;;;;;;;9.23;69.96;100422.98;109082;1271;21929;-76
2022/11/07 16:52:02;;;;;;;75.90;59.60;;;;;;;9.23;70.00;100424.58;109154;1271;21946;-80
2022/11/07 16:54:31;;;;;;;71.40;58.20;;;;;;;9.21;69.99;100425.67;109040;1272;21976;-80
2022/11/07 16:57:00;;;;;;;74.20;58.40;;;;;;;9.21;70.18;100426.70;109323;1271;23134;-80
2022/11/07 16:59:29;;;;;;;71.40;58.90;;;;;;;9.22;70.11;100419.55;109257;1271;21957;-79